New Orleans

Airport
ICAO code: 
KMSY
Summary
ICAO Region: 
NAM
Territory: 
Location: 
New Orleans, Louisiana,
Coordinates: 
Aerial View: 
29° 59' 36.242" N, 90° 15' 28.812" W
Metar
Observation
KMSY 021253Z 00000KT 7SM MIFG FEW250 11/11 A3020 RMK AO2 SLP229 T01110106
Station
New Orleans, New Orleans International Airport
Date/Time
2021-12-02 12:53:00
Wind direction
Wind speed
00 kts
Lowest cloud amount
few clouds
Temperature
11.1°C
Dew point
10.6°C
Humidity
96%
Weather condition
shallow fog

Description

International airport 10 nm west of the city of New Orleans, Louisiana, USA.

Climatology

Humid “subtropical” climate (Köppen climate classification Cfa) - characterized by hot, humid summers and cool winters. Significant amounts of precipitation occur in all seasons in most areas. Winter rainfall (and sometimes snowfall) is associated with large storms that the westerlies steer from west to east. Most summer rainfall occurs during thunderstorms and occasional tropical storms (hurricanes).

Runways

Designator Length Width Surface Rops
6/24 1088 46 ASP Yes/Yes
1/19 2134 46 ASP Yes/Yes
10/28 3080 46 PEM Yes/Yes
Airport map: 
Aerial View: 

SKYbrary Partners:

Safety knowledge contributed by: